Time;durP1;ratioP1;P1;durP2;ratioP2;P2;SDS_P1;SDS_P2;PMS_P1;PMS_P2;Temp;Humidity;BMP_temperature;BMP_pressure;BME280_temperature;BME280_humidity;BME280_pressure;Samples;Min_cycle;Max_cycle;Signal;HPM_P1;HPM_P2
2023/09/16 00:00:06;;;;;;;12.93;10.05;;;;;;;;;;2075036;28;20363;-53
2023/09/16 00:01:08;;;;;;;13.57;8.75;;;;;;;;;;2075367;28;20501;-54
2023/09/16 00:02:09;;;;;;;12.73;9.15;;;;;;;;;;2075739;28;20045;-53
2023/09/16 00:03:09;;;;;;;12.63;8.70;;;;;;;;;;2074451;28;20124;-54
2023/09/16 00:04:11;;;;;;;13.00;9.25;;;;;;;;;;2074173;28;20454;-54
2023/09/16 00:05:12;;;;;;;11.55;9.55;;;;;;;;;;2074247;28;20030;-53
2023/09/16 00:06:13;;;;;;;12.93;9.70;;;;;;;;;;2074099;28;20045;-53
2023/09/16 00:07:13;;;;;;;11.05;8.57;;;;;;;;;;2073871;28;20033;-53
2023/09/16 00:08:14;;;;;;;10.50;8.50;;;;;;;;;;2074147;28;20042;-53
2023/09/16 00:09:16;;;;;;;11.07;9.32;;;;;;;;;;2074016;28;20049;-53
2023/09/16 00:10:17;;;;;;;11.60;9.82;;;;;;;;;;2073476;28;20049;-53
2023/09/16 00:11:18;;;;;;;11.25;8.80;;;;;;;;;;2073491;28;20535;-54
2023/09/16 00:12:18;;;;;;;10.60;8.63;;;;;;;;;;2073092;28;20085;-53
2023/09/16 00:13:19;;;;;;;10.75;8.82;;;;;;;;;;2073700;28;20050;-53
2023/09/16 00:14:21;;;;;;;13.48;8.98;;;;;;;;;;2074039;28;20037;-53
2023/09/16 00:15:22;;;;;;;11.70;8.40;;;;;;;;;;2073835;28;20042;-53
2023/09/16 00:16:23;;;;;;;11.02;8.50;;;;;;;;;;2074082;28;20038;-53
2023/09/16 00:17:23;;;;;;;11.35;8.70;;;;;;;;;;2073253;28;20125;-53
2023/09/16 00:18:24;;;;;;;11.43;8.68;;;;;;;;;;2074147;28;20088;-53
2023/09/16 00:19:25;;;;;;;11.77;8.77;;;;;;;;;;2074030;28;20124;-54
2023/09/16 00:20:27;;;;;;;11.68;8.43;;;;;;;;;;2074197;28;20052;-53
2023/09/16 00:21:27;;;;;;;12.40;8.20;;;;;;;;;;2074141;28;20029;-54
2023/09/16 00:22:28;;;;;;;11.82;8.77;;;;;;;;;;2073885;28;20536;-53
2023/09/16 00:23:31;;;;;;;11.73;10.52;;;;;;;;;;2074192;28;20474;-53
2023/09/16 00:24:31;;;;;;;10.23;8.57;;;;;;;;;;2073807;28;20056;-53
2023/09/16 00:25:33;;;;;;;10.38;8.77;;;;;;;;;;2073978;28;20421;-53
2023/09/16 00:26:34;;;;;;;12.45;8.68;;;;;;;;;;2073600;28;20052;-54
2023/09/16 00:27:35;;;;;;;12.20;9.93;;;;;;;;;;2073811;28;20030;-54
2023/09/16 00:28:36;;;;;;;13.88;10.35;;;;;;;;;;2072805;28;20049;-53
2023/09/16 00:29:36;;;;;;;14.30;10.50;;;;;;;;;;2072980;28;20402;-53
2023/09/16 00:30:39;;;;;;;12.25;10.25;;;;;;;;;;2073291;28;20049;-53
2023/09/16 00:31:40;;;;;;;11.70;9.85;;;;;;;;;;2072951;28;20048;-53
2023/09/16 00:32:41;;;;;;;10.80;8.70;;;;;;;;;;2074127;28;20040;-53
2023/09/16 00:33:42;;;;;;;13.30;9.23;;;;;;;;;;2073829;28;20040;-53
2023/09/16 00:34:43;;;;;;;14.48;9.25;;;;;;;;;;2073972;28;20386;-53
2023/09/16 00:35:44;;;;;;;15.43;10.27;;;;;;;;;;2073922;28;20049;-53
2023/09/16 00:36:44;;;;;;;12.18;9.63;;;;;;;;;;2073830;28;20041;-53
2023/09/16 00:37:46;;;;;;;11.82;8.77;;;;;;;;;;2073920;28;20037;-53
2023/09/16 00:38:47;;;;;;;14.93;9.48;;;;;;;;;;2073946;28;20036;-53
2023/09/16 00:39:48;;;;;;;12.05;10.50;;;;;;;;;;2074017;28;20053;-53
2023/09/16 00:40:49;;;;;;;12.80;9.95;;;;;;;;;;2074028;28;20689;-54
2023/09/16 00:41:50;;;;;;;13.10;10.65;;;;;;;;;;2064827;28;20042;-53
2023/09/16 00:42:50;;;;;;;16.02;10.75;;;;;;;;;;2065056;28;20049;-53
2023/09/16 00:43:51;;;;;;;12.63;10.15;;;;;;;;;;2072697;28;20089;-53
2023/09/16 00:44:52;;;;;;;13.50;10.55;;;;;;;;;;2073144;28;20041;-53
2023/09/16 00:45:52;;;;;;;13.55;10.32;;;;;;;;;;2072791;28;20561;-53
2023/09/16 00:46:53;;;;;;;13.90;9.80;;;;;;;;;;2072718;28;20034;-54
2023/09/16 00:47:54;;;;;;;11.63;10.30;;;;;;;;;;2073188;28;20375;-54
2023/09/16 00:48:55;;;;;;;12.23;10.60;;;;;;;;;;2065562;28;20045;-54
2023/09/16 00:49:57;;;;;;;13.90;11.07;;;;;;;;;;2072884;28;20385;-53
2023/09/16 00:50:58;;;;;;;13.75;11.57;;;;;;;;;;2073948;28;20037;-53
2023/09/16 00:51:58;;;;;;;13.82;10.65;;;;;;;;;;2073750;28;20029;-53
2023/09/16 00:52:59;;;;;;;13.13;10.45;;;;;;;;;;2073910;28;20033;-53
2023/09/16 00:54:00;;;;;;;16.58;10.95;;;;;;;;;;2073921;28;20037;-53
2023/09/16 00:55:01;;;;;;;13.18;10.95;;;;;;;;;;2072771;28;20046;-54
2023/09/16 00:56:02;;;;;;;14.93;11.32;;;;;;;;;;2064734;28;20394;-54
2023/09/16 00:57:03;;;;;;;12.38;11.07;;;;;;;;;;2065034;28;20110;-54
2023/09/16 00:58:04;;;;;;;15.32;11.57;;;;;;;;;;2064940;28;20394;-54
2023/09/16 00:59:05;;;;;;;12.43;11.13;;;;;;;;;;2064663;28;20090;-54
2023/09/16 01:00:07;;;;;;;13.90;11.30;;;;;;;;;;2056769;28;20042;-54
2023/09/16 01:01:09;;;;;;;12.90;11.05;;;;;;;;;;2057551;28;20497;-54
2023/09/16 01:02:10;;;;;;;13.30;11.52;;;;;;;;;;2064488;28;20043;-54
2023/09/16 01:03:10;;;;;;;14.88;11.57;;;;;;;;;;2072840;28;20097;-55
2023/09/16 01:04:11;;;;;;;15.48;11.27;;;;;;;;;;2072828;28;20041;-54
2023/09/16 01:05:15;;;;;;;15.68;11.68;;;;;;;;;;2064668;28;20505;-55
2023/09/16 01:06:19;;;;;;;13.75;11.65;;;;;;;;;;2065322;28;20050;-55
2023/09/16 01:07:20;;;;;;;12.73;10.32;;;;;;;;;;2073214;28;20029;-54
2023/09/16 01:08:22;;;;;;;14.27;10.55;;;;;;;;;;2073752;28;20058;-54
2023/09/16 01:09:23;;;;;;;12.43;10.63;;;;;;;;;;2074931;28;20046;-54
2023/09/16 01:10:24;;;;;;;13.65;11.80;;;;;;;;;;2074493;28;20052;-54
2023/09/16 01:11:25;;;;;;;13.68;11.18;;;;;;;;;;2074485;28;20081;-54
2023/09/16 01:12:26;;;;;;;13.35;11.65;;;;;;;;;;2075689;28;20050;-54
2023/09/16 01:13:26;;;;;;;13.80;11.90;;;;;;;;;;2074431;28;20050;-53
2023/09/16 01:14:27;;;;;;;14.15;10.60;;;;;;;;;;2066022;28;20084;-53
2023/09/16 01:15:31;;;;;;;16.02;11.73;;;;;;;;;;2075011;28;20045;-52
2023/09/16 01:16:34;;;;;;;13.10;10.63;;;;;;;;;;2074506;28;20045;-52
2023/09/16 01:17:37;;;;;;;16.30;12.50;;;;;;;;;;2074858;28;20053;-52
2023/09/16 01:18:40;;;;;;;15.43;12.10;;;;;;;;;;2075017;28;20046;-52
2023/09/16 01:19:47;;;;;;;14.48;12.30;;;;;;;;;;2074524;28;20046;-52
2023/09/16 01:20:48;;;;;;;16.40;11.93;;;;;;;;;;2074785;28;20038;-53
2023/09/16 01:21:49;;;;;;;13.13;11.50;;;;;;;;;;2074904;28;20087;-53
2023/09/16 01:22:49;;;;;;;13.60;12.20;;;;;;;;;;2074920;28;20041;-52
2023/09/16 01:24:23;;;;;;;13.30;11.90;;;;;;;;;;2066246;28;20045;-53
2023/09/16 01:25:24;;;;;;;15.77;12.60;;;;;;;;;;2062474;28;20502;-53
2023/09/16 01:26:25;;;;;;;13.93;11.50;;;;;;;;;;2072122;28;20046;-53
2023/09/16 01:27:27;;;;;;;14.27;12.48;;;;;;;;;;2074023;28;20426;-53
2023/09/16 01:28:27;;;;;;;14.70;12.63;;;;;;;;;;2074435;28;20050;-53
2023/09/16 01:29:28;;;;;;;14.55;11.93;;;;;;;;;;2074831;28;20034;-53
2023/09/16 01:30:30;;;;;;;13.40;11.90;;;;;;;;;;2074046;28;20057;-53
2023/09/16 01:31:31;;;;;;;14.82;12.27;;;;;;;;;;2074662;28;20038;-53
2023/09/16 01:32:52;;;;;;;17.00;12.13;;;;;;;;;;2074732;28;20046;-53
2023/09/16 01:33:53;;;;;;;16.10;12.80;;;;;;;;;;2074218;28;20038;-53
2023/09/16 01:34:54;;;;;;;16.42;13.18;;;;;;;;;;2066392;28;20406;-53
2023/09/16 01:35:57;;;;;;;13.50;11.70;;;;;;;;;;2074312;28;20126;-53
2023/09/16 01:36:58;;;;;;;16.05;12.27;;;;;;;;;;2074211;28;20045;-53
2023/09/16 01:37:59;;;;;;;16.63;12.35;;;;;;;;;;2066552;28;20042;-52
2023/09/16 01:39:02;;;;;;;16.65;12.75;;;;;;;;;;2066312;28;20478;-53
2023/09/16 01:40:12;;;;;;;15.52;12.23;;;;;;;;;;2074498;28;20382;-52
2023/09/16 01:41:14;;;;;;;16.13;13.35;;;;;;;;;;2074469;28;20049;-53
2023/09/16 01:42:15;;;;;;;15.55;13.00;;;;;;;;;;2066186;28;20054;-53
2023/09/16 01:43:16;;;;;;;14.93;12.98;;;;;;;;;;2074638;28;20520;-53
2023/09/16 01:44:16;;;;;;;15.93;13.05;;;;;;;;;;2074441;28;20083;-53
2023/09/16 01:45:17;;;;;;;21.77;14.18;;;;;;;;;;2066218;28;20090;-52
2023/09/16 01:46:18;;;;;;;15.70;13.60;;;;;;;;;;2074161;28;20042;-53
2023/09/16 01:47:19;;;;;;;17.05;11.75;;;;;;;;;;2075140;28;20129;-52
2023/09/16 01:48:20;;;;;;;17.33;13.35;;;;;;;;;;2074122;28;20066;-52
2023/09/16 01:49:20;;;;;;;16.58;13.40;;;;;;;;;;2074861;28;20034;-53
2023/09/16 01:50:21;;;;;;;16.35;12.73;;;;;;;;;;2075300;28;20076;-53
2023/09/16 01:51:24;;;;;;;17.73;13.90;;;;;;;;;;2075065;28;20034;-53
2023/09/16 01:52:24;;;;;;;17.13;13.77;;;;;;;;;;2074467;28;20402;-53
2023/09/16 01:53:25;;;;;;;15.88;13.27;;;;;;;;;;2074094;28;20088;-52
2023/09/16 01:54:26;;;;;;;17.90;13.57;;;;;;;;;;2074164;28;20046;-54
2023/09/16 01:55:27;;;;;;;18.00;14.45;;;;;;;;;;2074970;28;20034;-53
2023/09/16 01:56:27;;;;;;;17.13;14.32;;;;;;;;;;2074113;28;20050;-53
2023/09/16 01:57:28;;;;;;;18.60;12.98;;;;;;;;;;2066001;28;20046;-53
2023/09/16 01:58:29;;;;;;;17.33;13.57;;;;;;;;;;2065992;28;20050;-53
2023/09/16 01:59:30;;;;;;;17.67;14.23;;;;;;;;;;2066399;28;20049;-53
2023/09/16 02:00:31;;;;;;;17.95;14.43;;;;;;;;;;2066380;28;20038;-55
2023/09/16 02:01:33;;;;;;;18.60;13.90;;;;;;;;;;2074263;28;20049;-53
2023/09/16 02:02:33;;;;;;;15.65;13.45;;;;;;;;;;2074466;28;20473;-53
2023/09/16 02:03:34;;;;;;;19.08;14.85;;;;;;;;;;2073971;28;20168;-53
2023/09/16 02:04:36;;;;;;;17.55;14.93;;;;;;;;;;2073774;28;20038;-53
2023/09/16 02:05:39;;;;;;;16.75;13.48;;;;;;;;;;2074193;28;20046;-53
2023/09/16 02:06:41;;;;;;;19.48;15.23;;;;;;;;;;2066480;28;20053;-53
2023/09/16 02:07:42;;;;;;;20.10;15.02;;;;;;;;;;2073897;28;20053;-53
2023/09/16 02:08:43;;;;;;;19.75;13.52;;;;;;;;;;2074226;28;20095;-53
2023/09/16 02:09:43;;;;;;;20.88;13.80;;;;;;;;;;2065936;28;20038;-53
2023/09/16 02:10:45;;;;;;;19.73;13.23;;;;;;;;;;2066408;28;20109;-53
2023/09/16 02:11:46;;;;;;;18.00;13.57;;;;;;;;;;2065613;28;20042;-53
2023/09/16 02:12:47;;;;;;;17.65;14.68;;;;;;;;;;2074484;28;20478;-53
2023/09/16 02:13:48;;;;;;;18.38;15.15;;;;;;;;;;2074958;28;20042;-53
2023/09/16 02:14:51;;;;;;;18.08;14.18;;;;;;;;;;2065638;28;20524;-53
2023/09/16 02:15:52;;;;;;;18.27;14.50;;;;;;;;;;2058668;28;20039;-53
2023/09/16 02:16:53;;;;;;;19.33;15.85;;;;;;;;;;2074011;28;20044;-53
2023/09/16 02:17:53;;;;;;;17.35;15.10;;;;;;;;;;2074209;28;20441;-52
2023/09/16 02:18:54;;;;;;;19.27;16.50;;;;;;;;;;2065736;28;20081;-53
2023/09/16 02:19:55;;;;;;;19.83;16.33;;;;;;;;;;2065687;28;20388;-53
2023/09/16 02:20:56;;;;;;;20.08;15.52;;;;;;;;;;2066471;28;20035;-53
2023/09/16 02:21:58;;;;;;;20.67;16.20;;;;;;;;;;2066010;28;20039;-53
2023/09/16 02:23:00;;;;;;;17.65;15.13;;;;;;;;;;2074139;28;20473;-53
2023/09/16 02:24:01;;;;;;;20.27;16.45;;;;;;;;;;2074331;28;20029;-54
2023/09/16 02:25:02;;;;;;;19.35;15.15;;;;;;;;;;2066069;28;20438;-53
2023/09/16 02:26:03;;;;;;;20.33;14.77;;;;;;;;;;2073807;28;20046;-53
2023/09/16 02:27:04;;;;;;;19.02;15.73;;;;;;;;;;2074476;28;20046;-53
2023/09/16 02:28:05;;;;;;;21.77;15.70;;;;;;;;;;2074920;28;20038;-53
2023/09/16 02:29:05;;;;;;;19.08;15.65;;;;;;;;;;2073813;28;20052;-53
2023/09/16 02:30:06;;;;;;;23.73;17.00;;;;;;;;;;2073468;28;20042;-53
2023/09/16 02:31:10;;;;;;;20.88;16.02;;;;;;;;;;2074715;28;20044;-53
2023/09/16 02:32:11;;;;;;;26.80;17.30;;;;;;;;;;2074647;28;20030;-53
2023/09/16 02:33:11;;;;;;;22.73;18.67;;;;;;;;;;2073907;28;20081;-53
2023/09/16 02:34:12;;;;;;;21.45;17.23;;;;;;;;;;2065872;28;20058;-53
2023/09/16 02:35:13;;;;;;;22.55;17.58;;;;;;;;;;2065912;28;20100;-53
2023/09/16 02:36:14;;;;;;;19.88;16.80;;;;;;;;;;2074253;28;20418;-53
2023/09/16 02:37:14;;;;;;;21.90;17.90;;;;;;;;;;2074659;28;20042;-53
2023/09/16 02:38:15;;;;;;;22.15;18.05;;;;;;;;;;2074112;28;20053;-53
2023/09/16 02:39:16;;;;;;;21.05;17.70;;;;;;;;;;2065701;28;20121;-53
2023/09/16 02:40:17;;;;;;;21.27;17.13;;;;;;;;;;2073673;28;20057;-53
2023/09/16 02:41:17;;;;;;;19.10;15.55;;;;;;;;;;2074670;28;20124;-53
2023/09/16 02:42:20;;;;;;;20.58;16.90;;;;;;;;;;2073798;28;20060;-53
2023/09/16 02:43:20;;;;;;;19.30;16.80;;;;;;;;;;2074106;28;20485;-53
2023/09/16 02:44:21;;;;;;;22.48;17.52;;;;;;;;;;2073454;28;20050;-53
2023/09/16 02:45:22;;;;;;;20.45;17.48;;;;;;;;;;2065643;28;20085;-53
2023/09/16 02:46:25;;;;;;;21.10;16.65;;;;;;;;;;2065847;28;20426;-53
2023/09/16 02:47:27;;;;;;;22.92;16.48;;;;;;;;;;2065948;28;20364;-53
2023/09/16 02:48:29;;;;;;;24.08;18.00;;;;;;;;;;2065523;28;20046;-53
2023/09/16 02:49:31;;;;;;;23.25;18.17;;;;;;;;;;2073786;28;20482;-52
2023/09/16 02:50:36;;;;;;;23.85;17.63;;;;;;;;;;2065792;28;20042;-53
2023/09/16 02:51:37;;;;;;;22.48;15.90;;;;;;;;;;2058792;28;20047;-53
2023/09/16 02:52:37;;;;;;;20.88;15.95;;;;;;;;;;2074391;28;20037;-53
2023/09/16 02:53:38;;;;;;;22.60;16.58;;;;;;;;;;2074141;28;20037;-53
2023/09/16 02:54:39;;;;;;;21.85;17.10;;;;;;;;;;2073640;28;20465;-53
2023/09/16 02:55:40;;;;;;;21.85;16.40;;;;;;;;;;2065842;28;20038;-53
2023/09/16 02:56:41;;;;;;;21.63;16.02;;;;;;;;;;2073685;28;20034;-53
2023/09/16 02:57:42;;;;;;;23.85;19.38;;;;;;;;;;2073644;28;20038;-53
2023/09/16 02:58:43;;;;;;;22.17;15.90;;;;;;;;;;2073707;28;20413;-53
2023/09/16 02:59:44;;;;;;;23.45;16.42;;;;;;;;;;2073923;28;20038;-52
2023/09/16 03:00:47;;;;;;;21.80;17.60;;;;;;;;;;2065778;28;20463;-53
2023/09/16 03:01:48;;;;;;;24.60;16.65;;;;;;;;;;2066050;28;20042;-53
2023/09/16 03:02:49;;;;;;;19.83;15.75;;;;;;;;;;2065748;28;20042;-53
2023/09/16 03:03:50;;;;;;;22.23;17.00;;;;;;;;;;2065419;28;20038;-53
2023/09/16 03:04:51;;;;;;;24.77;19.10;;;;;;;;;;2073589;28;20080;-53
2023/09/16 03:05:52;;;;;;;26.05;18.05;;;;;;;;;;2073799;28;20454;-53
2023/09/16 03:06:53;;;;;;;25.80;20.33;;;;;;;;;;2065713;28;20073;-53
2023/09/16 03:07:53;;;;;;;22.58;17.08;;;;;;;;;;2073910;28;20049;-53
2023/09/16 03:08:54;;;;;;;23.70;18.05;;;;;;;;;;2073654;28;20510;-53
2023/09/16 03:09:55;;;;;;;25.70;19.50;;;;;;;;;;2065790;28;20077;-53
2023/09/16 03:10:59;;;;;;;21.67;18.05;;;;;;;;;;2074053;28;20048;-53
2023/09/16 03:12:00;;;;;;;22.45;18.02;;;;;;;;;;2073729;28;20049;-53
2023/09/16 03:13:01;;;;;;;24.83;18.35;;;;;;;;;;2065280;28;20046;-53
2023/09/16 03:14:02;;;;;;;22.13;18.60;;;;;;;;;;2073726;28;20387;-53
2023/09/16 03:15:03;;;;;;;22.50;18.23;;;;;;;;;;2073703;28;20077;-53
2023/09/16 03:16:13;;;;;;;22.73;18.98;;;;;;;;;;2065431;28;20054;-53
2023/09/16 03:17:14;;;;;;;24.98;19.17;;;;;;;;;;2066695;28;20519;-53
2023/09/16 03:18:15;;;;;;;23.85;18.80;;;;;;;;;;2065335;28;20046;-52
2023/09/16 03:19:17;;;;;;;24.27;19.45;;;;;;;;;;2065365;28;20050;-54
2023/09/16 03:20:18;;;;;;;28.95;19.10;;;;;;;;;;2065381;28;20043;-53
2023/09/16 03:21:22;;;;;;;22.83;18.90;;;;;;;;;;2065140;28;20410;-53
2023/09/16 03:22:25;;;;;;;26.90;20.17;;;;;;;;;;2065780;28;20038;-53
2023/09/16 03:23:25;;;;;;;27.25;18.85;;;;;;;;;;2065516;28;20154;-53
2023/09/16 03:24:26;;;;;;;23.90;18.17;;;;;;;;;;2057601;28;20046;-53
2023/09/16 03:25:27;;;;;;;25.30;20.17;;;;;;;;;;2057578;28;20459;-53
2023/09/16 03:26:28;;;;;;;26.33;20.30;;;;;;;;;;2065532;28;20091;-53
2023/09/16 03:27:28;;;;;;;25.25;18.75;;;;;;;;;;2073709;28;20104;-53
2023/09/16 03:28:29;;;;;;;25.40;17.45;;;;;;;;;;2065627;28;20391;-53
2023/09/16 03:29:30;;;;;;;23.35;19.23;;;;;;;;;;2064925;28;20485;-53
2023/09/16 03:30:30;;;;;;;26.27;17.42;;;;;;;;;;2066010;28;20087;-53
2023/09/16 03:31:33;;;;;;;27.08;20.63;;;;;;;;;;2072657;28;20041;-53
2023/09/16 03:32:41;;;;;;;24.58;16.83;;;;;;;;;;2066496;28;20049;-53
2023/09/16 03:33:42;;;;;;;25.50;19.60;;;;;;;;;;2065397;28;20042;-53
2023/09/16 03:34:43;;;;;;;28.38;20.30;;;;;;;;;;2073743;28;20445;-53
2023/09/16 03:35:45;;;;;;;27.45;20.17;;;;;;;;;;2073744;28;20037;-53
2023/09/16 03:36:45;;;;;;;28.45;21.08;;;;;;;;;;2073114;28;20041;-53
2023/09/16 03:37:46;;;;;;;25.05;20.10;;;;;;;;;;2065683;28;20022;-53
2023/09/16 03:38:48;;;;;;;26.38;18.83;;;;;;;;;;2065357;28;20038;-53
2023/09/16 03:39:48;;;;;;;25.83;18.88;;;;;;;;;;2066064;28;20042;-54
2023/09/16 03:40:50;;;;;;;25.30;18.48;;;;;;;;;;2067005;28;20042;-54
2023/09/16 03:41:51;;;;;;;28.52;20.88;;;;;;;;;;2066889;28;20045;-54
2023/09/16 03:42:54;;;;;;;25.80;18.00;;;;;;;;;;2066829;28;20038;-53
2023/09/16 03:43:54;;;;;;;25.52;20.33;;;;;;;;;;2074937;28;20041;-54
2023/09/16 03:44:57;;;;;;;28.38;21.80;;;;;;;;;;2074516;28;20041;-53
2023/09/16 03:45:59;;;;;;;26.50;20.98;;;;;;;;;;2065725;28;20475;-53
2023/09/16 03:47:02;;;;;;;27.10;21.38;;;;;;;;;;2065176;28;20418;-53
2023/09/16 03:48:05;;;;;;;28.65;20.67;;;;;;;;;;2065826;28;20034;-53
2023/09/16 03:49:09;;;;;;;27.88;21.30;;;;;;;;;;2073406;28;20045;-53
2023/09/16 03:50:09;;;;;;;25.35;19.50;;;;;;;;;;2073269;28;20081;-53
2023/09/16 03:51:11;;;;;;;29.48;20.42;;;;;;;;;;2065274;28;20152;-53
2023/09/16 03:52:12;;;;;;;30.02;22.63;;;;;;;;;;2057550;28;20042;-53
2023/09/16 03:53:13;;;;;;;27.65;19.13;;;;;;;;;;2065504;28;20398;-53
2023/09/16 03:54:16;;;;;;;29.45;22.02;;;;;;;;;;2065969;28;20046;-53
2023/09/16 03:55:17;;;;;;;29.98;21.83;;;;;;;;;;2065390;28;20495;-53
2023/09/16 03:56:19;;;;;;;31.27;22.55;;;;;;;;;;2065397;28;20078;-53
2023/09/16 03:57:19;;;;;;;30.20;22.10;;;;;;;;;;2064868;28;20046;-53
2023/09/16 03:58:22;;;;;;;29.88;22.58;;;;;;;;;;2057564;28;20039;-53
2023/09/16 03:59:23;;;;;;;33.47;21.85;;;;;;;;;;2064821;28;20046;-53
2023/09/16 04:00:23;;;;;;;28.33;18.50;;;;;;;;;;2064872;28;20058;-53
2023/09/16 04:01:24;;;;;;;30.48;21.90;;;;;;;;;;2073582;28;20030;-53
2023/09/16 04:02:25;;;;;;;33.13;22.70;;;;;;;;;;2073800;28;20469;-53
2023/09/16 04:03:25;;;;;;;27.88;22.00;;;;;;;;;;2073337;28;20401;-53
2023/09/16 04:04:26;;;;;;;29.35;22.23;;;;;;;;;;2073161;28;20077;-53
2023/09/16 04:05:27;;;;;;;29.98;22.52;;;;;;;;;;2073951;28;20056;-53
2023/09/16 04:06:28;;;;;;;32.88;22.88;;;;;;;;;;2073468;28;20042;-53
2023/09/16 04:07:28;;;;;;;33.97;24.05;;;;;;;;;;2065031;28;20042;-53
2023/09/16 04:08:29;;;;;;;27.55;21.88;;;;;;;;;;2065055;28;20042;-53
2023/09/16 04:09:30;;;;;;;30.17;22.80;;;;;;;;;;2073059;28;20057;-53
2023/09/16 04:10:31;;;;;;;29.73;23.13;;;;;;;;;;2073313;28;20034;-53
2023/09/16 04:11:32;;;;;;;29.90;23.85;;;;;;;;;;2073225;28;20046;-53
2023/09/16 04:12:32;;;;;;;32.58;22.60;;;;;;;;;;2074441;28;20048;-53
2023/09/16 04:13:33;;;;;;;33.08;24.55;;;;;;;;;;2073925;28;20045;-53
2023/09/16 04:14:34;;;;;;;35.03;25.08;;;;;;;;;;2073906;28;20045;-53
2023/09/16 04:15:35;;;;;;;36.35;26.02;;;;;;;;;;2073911;28;20170;-53
2023/09/16 04:16:36;;;;;;;32.70;24.85;;;;;;;;;;2074070;28;20466;-53
2023/09/16 04:17:36;;;;;;;34.08;24.92;;;;;;;;;;2072700;28;20080;-53
2023/09/16 04:18:37;;;;;;;33.35;25.20;;;;;;;;;;2073122;28;20093;-53
2023/09/16 04:19:38;;;;;;;35.17;26.02;;;;;;;;;;2073693;28;20536;-53
2023/09/16 04:20:39;;;;;;;36.70;27.08;;;;;;;;;;2073632;28;20397;-53
2023/09/16 04:21:39;;;;;;;34.70;25.05;;;;;;;;;;2073426;28;20038;-53
2023/09/16 04:22:40;;;;;;;33.22;24.48;;;;;;;;;;2065190;28;20038;-53
2023/09/16 04:23:41;;;;;;;35.03;25.52;;;;;;;;;;2072795;28;20044;-53
2023/09/16 04:24:44;;;;;;;35.55;25.65;;;;;;;;;;2073030;28;20453;-53
2023/09/16 04:25:44;;;;;;;33.70;25.58;;;;;;;;;;2065171;28;20042;-53
2023/09/16 04:26:46;;;;;;;34.42;25.08;;;;;;;;;;2073068;28;20417;-53
2023/09/16 04:27:46;;;;;;;33.53;24.48;;;;;;;;;;2081529;28;20033;-53
2023/09/16 04:28:47;;;;;;;35.47;25.08;;;;;;;;;;2073498;28;20041;-53
2023/09/16 04:29:48;;;;;;;36.70;25.20;;;;;;;;;;2073348;28;20081;-53
2023/09/16 04:30:49;;;;;;;34.33;25.00;;;;;;;;;;2073332;28;20034;-53
2023/09/16 04:31:51;;;;;;;33.70;25.13;;;;;;;;;;2064916;28;20042;-53
2023/09/16 04:32:53;;;;;;;36.42;25.95;;;;;;;;;;2064844;28;20049;-53
2023/09/16 04:33:54;;;;;;;34.88;23.70;;;;;;;;;;2073004;28;20044;-53
2023/09/16 04:34:56;;;;;;;31.88;23.77;;;;;;;;;;2065399;28;20035;-53
2023/09/16 04:35:56;;;;;;;34.55;24.65;;;;;;;;;;2065000;28;20038;-53
2023/09/16 04:36:59;;;;;;;35.00;25.30;;;;;;;;;;2065391;28;20502;-53
2023/09/16 04:38:00;;;;;;;40.22;27.60;;;;;;;;;;2065203;28;20041;-53
2023/09/16 04:39:01;;;;;;;37.53;25.83;;;;;;;;;;2072999;28;20187;-53
2023/09/16 04:40:09;;;;;;;40.35;28.08;;;;;;;;;;2065054;28;20035;-53
2023/09/16 04:41:10;;;;;;;35.67;24.35;;;;;;;;;;2066469;28;20042;-53
2023/09/16 04:42:10;;;;;;;38.63;27.65;;;;;;;;;;2072810;28;20056;-53
2023/09/16 04:43:14;;;;;;;38.75;27.23;;;;;;;;;;2072874;28;20429;-53
2023/09/16 04:44:16;;;;;;;36.92;26.55;;;;;;;;;;2065742;28;20046;-53
2023/09/16 04:45:17;;;;;;;39.72;27.52;;;;;;;;;;2065226;28;20066;-53
2023/09/16 04:46:18;;;;;;;35.65;26.30;;;;;;;;;;2064856;28;20046;-53
2023/09/16 04:47:21;;;;;;;35.03;24.55;;;;;;;;;;2065443;28;20402;-53
2023/09/16 04:48:22;;;;;;;34.88;26.63;;;;;;;;;;2064616;28;20426;-53
2023/09/16 04:49:23;;;;;;;35.97;26.27;;;;;;;;;;2073133;28;20049;-53
2023/09/16 04:50:25;;;;;;;35.13;24.88;;;;;;;;;;2073207;28;20062;-53
2023/09/16 04:51:26;;;;;;;34.03;23.85;;;;;;;;;;2074043;28;20030;-53
2023/09/16 04:52:30;;;;;;;35.65;26.77;;;;;;;;;;2073156;28;20393;-53
2023/09/16 04:53:34;;;;;;;37.80;26.17;;;;;;;;;;2065301;28;20042;-53
2023/09/16 04:54:38;;;;;;;33.90;25.38;;;;;;;;;;2064731;28;20046;-53
2023/09/16 04:55:41;;;;;;;37.28;26.08;;;;;;;;;;2065176;28;20510;-53
2023/09/16 04:56:41;;;;;;;33.17;22.83;;;;;;;;;;2065322;28;20035;-53
2023/09/16 04:57:42;;;;;;;35.35;25.70;;;;;;;;;;2072696;28;20053;-53
2023/09/16 04:58:49;;;;;;;39.58;28.83;;;;;;;;;;2073180;28;20421;-53
2023/09/16 04:59:50;;;;;;;36.03;26.23;;;;;;;;;;2065820;28;20042;-53
2023/09/16 05:00:51;;;;;;;38.95;27.63;;;;;;;;;;2064834;28;20050;-53
2023/09/16 05:01:52;;;;;;;37.47;25.35;;;;;;;;;;2072253;28;20093;-53
2023/09/16 05:02:54;;;;;;;35.88;25.70;;;;;;;;;;2073145;28;20045;-53
2023/09/16 05:03:55;;;;;;;34.83;25.90;;;;;;;;;;2072795;28;20045;-53
2023/09/16 05:04:55;;;;;;;34.88;24.98;;;;;;;;;;2064939;28;20038;-53
2023/09/16 05:05:56;;;;;;;30.35;24.45;;;;;;;;;;2064801;28;20046;-53
2023/09/16 05:07:01;;;;;;;33.15;23.77;;;;;;;;;;2065220;28;20057;-53
2023/09/16 05:08:01;;;;;;;30.02;21.55;;;;;;;;;;2065007;28;20057;-53
2023/09/16 05:09:03;;;;;;;29.90;22.13;;;;;;;;;;2064942;28;20042;-53
2023/09/16 05:10:05;;;;;;;30.65;22.75;;;;;;;;;;2064606;28;20046;-53
2023/09/16 05:11:05;;;;;;;27.95;21.88;;;;;;;;;;2065082;28;20042;-53
2023/09/16 05:12:17;;;;;;;29.25;22.27;;;;;;;;;;2066537;28;20050;-53
2023/09/16 05:13:17;;;;;;;31.67;22.10;;;;;;;;;;2065019;28;20096;-53
2023/09/16 05:14:18;;;;;;;27.65;21.35;;;;;;;;;;2064881;28;20046;-53
2023/09/16 05:15:19;;;;;;;28.50;20.48;;;;;;;;;;2065130;28;20074;-53
2023/09/16 05:16:20;;;;;;;29.55;21.13;;;;;;;;;;2072886;28;20048;-53
2023/09/16 05:17:20;;;;;;;29.80;21.40;;;;;;;;;;2073130;28;20053;-53
2023/09/16 05:18:21;;;;;;;28.40;18.90;;;;;;;;;;2073019;28;20053;-53
2023/09/16 05:19:22;;;;;;;30.13;20.65;;;;;;;;;;2064930;28;20039;-53
2023/09/16 05:20:24;;;;;;;25.20;20.55;;;;;;;;;;2065140;28;20057;-53
2023/09/16 05:21:25;;;;;;;31.90;22.30;;;;;;;;;;2065244;28;20057;-53
2023/09/16 05:22:26;;;;;;;24.10;20.23;;;;;;;;;;2073098;28;20044;-53
2023/09/16 05:23:29;;;;;;;25.35;19.75;;;;;;;;;;2072578;28;20042;-53
2023/09/16 05:24:34;;;;;;;26.88;19.77;;;;;;;;;;2064983;28;20049;-53
2023/09/16 05:25:34;;;;;;;23.45;18.42;;;;;;;;;;2065045;28;20057;-53
2023/09/16 05:26:35;;;;;;;24.05;18.73;;;;;;;;;;2064849;28;20050;-53
2023/09/16 05:27:36;;;;;;;25.20;19.73;;;;;;;;;;2073315;28;20073;-53
2023/09/16 05:28:37;;;;;;;23.90;18.20;;;;;;;;;;2072375;28;20042;-53
2023/09/16 05:29:39;;;;;;;22.45;16.48;;;;;;;;;;2064968;28;20046;-53
2023/09/16 05:30:42;;;;;;;22.45;16.85;;;;;;;;;;2064406;28;20132;-53
2023/09/16 05:31:43;;;;;;;20.92;17.13;;;;;;;;;;2065271;28;20038;-53
2023/09/16 05:32:44;;;;;;;21.50;16.40;;;;;;;;;;2073112;28;20410;-53
2023/09/16 05:33:45;;;;;;;23.92;17.67;;;;;;;;;;2064798;28;20046;-53
2023/09/16 05:34:46;;;;;;;21.02;17.35;;;;;;;;;;2072958;28;20046;-53
2023/09/16 05:35:47;;;;;;;22.75;18.02;;;;;;;;;;2072615;28;20040;-54
2023/09/16 05:36:48;;;;;;;20.35;15.98;;;;;;;;;;2064664;28;20065;-53
2023/09/16 05:37:50;;;;;;;22.52;16.65;;;;;;;;;;2064893;28;20038;-53
2023/09/16 05:38:51;;;;;;;21.92;15.20;;;;;;;;;;2064922;28;20046;-53
2023/09/16 05:39:52;;;;;;;23.65;18.13;;;;;;;;;;2064790;28;20034;-53
2023/09/16 05:40:53;;;;;;;24.80;18.13;;;;;;;;;;2064349;28;20043;-53
2023/09/16 05:41:54;;;;;;;20.08;16.52;;;;;;;;;;2072811;28;20038;-53
2023/09/16 05:42:56;;;;;;;23.30;16.83;;;;;;;;;;2072737;28;20367;-53
2023/09/16 05:43:57;;;;;;;23.33;17.10;;;;;;;;;;2072443;28;20038;-53
2023/09/16 05:45:00;;;;;;;21.98;16.52;;;;;;;;;;2072602;28;20051;-53
2023/09/16 05:46:01;;;;;;;21.48;17.50;;;;;;;;;;2056428;28;20050;-53
2023/09/16 05:47:02;;;;;;;17.38;12.95;;;;;;;;;;2057212;28;20047;-53
2023/09/16 05:48:04;;;;;;;23.30;16.65;;;;;;;;;;2064564;28;20050;-53
2023/09/16 05:49:07;;;;;;;20.25;15.70;;;;;;;;;;2064600;28;20421;-53
2023/09/16 05:50:08;;;;;;;20.60;17.25;;;;;;;;;;2072929;28;20044;-53
2023/09/16 05:51:10;;;;;;;18.17;14.35;;;;;;;;;;2073035;28;20091;-53
2023/09/16 05:52:10;;;;;;;20.35;15.52;;;;;;;;;;2072949;28;20053;-53
2023/09/16 05:53:12;;;;;;;19.48;14.60;;;;;;;;;;2064648;28;20057;-53
2023/09/16 05:54:15;;;;;;;20.35;14.88;;;;;;;;;;2072759;28;20042;-53
2023/09/16 05:55:15;;;;;;;20.30;15.43;;;;;;;;;;2074568;28;20069;-53
2023/09/16 05:56:16;;;;;;;20.27;15.80;;;;;;;;;;2074168;28;20065;-53
2023/09/16 05:57:23;;;;;;;18.75;14.98;;;;;;;;;;2067094;28;20047;-55
2023/09/16 05:58:24;;;;;;;23.05;15.85;;;;;;;;;;2065698;28;20054;-53